This is the latest recevied weather packets stored in our database for station/object KE9ADS. If no packets are shown the sender has not sent any weather packets the latest 10 day(s).
| Time | Temp. | Humidity | Pressure | Rain* | Wind** | Luminosity | Snow |
|---|---|---|---|---|---|---|---|
| 1777593799 | 10.56° C | 74% | 1017.3 hPa | 0 mm | - | 16 W/m² | - |
| 1777593195 | 10.56° C | 73% | 1017.2 hPa | 0 mm | - | 26 W/m² | - |
| 1777592590 | 10.56° C | 72% | 1017 hPa | 0 mm | - | 29 W/m² | - |
| 1777591988 | 10.56° C | 72% | 1017.1 hPa | 0 mm | - | 28 W/m² | - |
| 1777591386 | 10.56° C | 74% | 1016.9 hPa | 0 mm | - | 61 W/m² | - |
| 1777590784 | 10.56° C | 75% | 1017.1 hPa | 0 mm | - | 60 W/m² | - |
| 1777590183 | 10.56° C | 79% | 1017 hPa | 0 mm | - | 97 W/m² | - |
| 1777589581 | 10° C | 80% | 1017 hPa | 0 mm | - | 77 W/m² | - |
| 1777588976 | 10° C | 81% | 1017.3 hPa | 0 mm | - | 43 W/m² | - |
| 1777588374 | 10° C | 84% | 1017.1 hPa | 0 mm | - | 31 W/m² | - |
| 1777587772 | 10.56° C | 85% | 1017.2 hPa | 0 mm | - | 45 W/m² | - |
| 1777587168 | 10.56° C | 84% | 1017.2 hPa | 0 mm | - | 43 W/m² | - |
| 1777586565 | 11.11° C | 80% | 1017 hPa | 3.05 mm | - | 63 W/m² | - |
| 1777585964 | 12.22° C | 71% | 1017 hPa | 0 mm | - | 27 W/m² | - |
| 1777585361 | 12.22° C | 70% | 1017 hPa | 0 mm | - | 41 W/m² | - |
| 1777584758 | 12.22° C | 70% | 1017 hPa | 0 mm | - | 45 W/m² | - |
| 1777584158 | 12.22° C | 69% | 1017.1 hPa | 0 mm | - | 51 W/m² | - |
| 1777583553 | 12.22° C | 68% | 1017.2 hPa | 0 mm | - | 37 W/m² | - |
| 1777582952 | 12.78° C | 67% | 1017.2 hPa | 0 mm | - | 57 W/m² | - |
| 1777582351 | 12.78° C | 66% | 1017.5 hPa | 0 mm | - | 45 W/m² | - |
| 1777581750 | 12.78° C | 64% | 1017.4 hPa | 0 mm | - | 146 W/m² | - |
| 1777581150 | 13.33° C | 64% | 1017.7 hPa | 0 mm | - | 217 W/m² | - |
| 1777580546 | 12.78° C | 70% | 1017.8 hPa | 0 mm | - | 216 W/m² | - |
| 1777579945 | 12.22° C | 68% | 1018 hPa | 0 mm | - | 166 W/m² | - |
| 1777579344 | 12.22° C | 71% | 1018.1 hPa | 0 mm | - | 165 W/m² | - |
* Rain latest hour (hover to see other rain measurements)
** Current wind speed in m/s (hover to see current wind gust speed)